RYR51AD LEPA-EDDK
Flight info
| Callsign | RYR51AD |
|---|---|
| Flight time | 1h 52m |
| Altitude | 36000 |
| Route | MEROS N853 LUMAS DCT MAXIR DCT LUSOL DCT BODRU DCT OKTET DCT IRMAR DCT KINES DCT VANAS DCT MOBLO DCT UBIMA DCT GILIR DCT PENDU DCT IXILU DCT EPL DCT JARNY DCT ROUSY/N0439F370 M624 DIK N853 ARCKY T853 IBESA/N0386F230 T860 ERUKI ERUKI1G |
| Aircraft | A320/M-SDE3FGHIRWY/LB1 |
Departure
| Time | 2026-05-04 13:55 |
|---|---|
| Airport | Palma de Mallorca Airport (LEPA) |
Arrival
| Time | 2026-05-04 15:47 |
|---|---|
| Airport | Cologne Bonn Airport (EDDK) |
| Time | Latitude | Longitude | Altitude | Speed | Heading |
|---|---|---|---|---|---|
| 2026-05-04 13:22 | 39.55065 | 2.73580 | 36 ft | 0 kts | 164° |
| 2026-05-04 13:43 | 39.55074 | 2.73576 | 36 ft | 4 kts | 186° |
| 2026-05-04 13:43 | 39.55095 | 2.73573 | 35 ft | 4 kts | 171° |
| 2026-05-04 13:44 | 39.55119 | 2.73577 | 35 ft | 4 kts | 220° |
| 2026-05-04 13:44 | 39.55135 | 2.73601 | 38 ft | 3 kts | 239° |
| 2026-05-04 13:44 | 39.55149 | 2.73631 | 38 ft | 4 kts | 239° |
| 2026-05-04 13:44 | 39.55151 | 2.73637 | 38 ft | 0 kts | 238° |
| 2026-05-04 13:47 | 39.55151 | 2.73635 | 38 ft | 1 kts | 242° |
| 2026-05-04 13:47 | 39.55153 | 2.73626 | 38 ft | 1 kts | 290° |
| 2026-05-04 13:47 | 39.55164 | 2.73622 | 38 ft | 3 kts | 342° |
| 2026-05-04 13:47 | 39.55195 | 2.73614 | 38 ft | 5 kts | 348° |
| 2026-05-04 13:48 | 39.55223 | 2.73599 | 37 ft | 5 kts | 330° |
| 2026-05-04 13:48 | 39.55270 | 2.73562 | 38 ft | 8 kts | 328° |
| 2026-05-04 13:48 | 39.55317 | 2.73525 | 38 ft | 7 kts | 328° |
| 2026-05-04 13:48 | 39.55356 | 2.73494 | 38 ft | 6 kts | 328° |
| 2026-05-04 13:49 | 39.55401 | 2.73460 | 38 ft | 11 kts | 331° |
| 2026-05-04 13:49 | 39.55468 | 2.73499 | 38 ft | 11 kts | 58° |
| 2026-05-04 13:49 | 39.55512 | 2.73572 | 38 ft | 9 kts | 18° |
| 2026-05-04 13:49 | 39.55567 | 2.73543 | 38 ft | 8 kts | 329° |
| 2026-05-04 13:50 | 39.55633 | 2.73506 | 36 ft | 15 kts | 0° |
| 2026-05-04 13:50 | 39.55701 | 2.73598 | 38 ft | 14 kts | 58° |
| 2026-05-04 13:50 | 39.55750 | 2.73700 | 38 ft | 13 kts | 58° |
| 2026-05-04 13:50 | 39.55793 | 2.73793 | 38 ft | 11 kts | 60° |
| 2026-05-04 13:51 | 39.55831 | 2.73876 | 38 ft | 10 kts | 59° |
| 2026-05-04 13:51 | 39.55865 | 2.73946 | 36 ft | 8 kts | 58° |
| 2026-05-04 13:51 | 39.55894 | 2.74006 | 36 ft | 7 kts | 58° |
| 2026-05-04 13:51 | 39.55927 | 2.74080 | 38 ft | 12 kts | 60° |
| 2026-05-04 13:52 | 39.56018 | 2.74269 | 38 ft | 11 kts | 58° |
| 2026-05-04 13:52 | 39.56056 | 2.74351 | 37 ft | 10 kts | 58° |
| 2026-05-04 13:52 | 39.56090 | 2.74419 | 37 ft | 8 kts | 52° |
| 2026-05-04 13:53 | 39.56136 | 2.74453 | 38 ft | 7 kts | 10° |
| 2026-05-04 13:53 | 39.56178 | 2.74442 | 35 ft | 6 kts | 334° |
| 2026-05-04 13:53 | 39.56210 | 2.74415 | 38 ft | 7 kts | 327° |
| 2026-05-04 13:54 | 39.56237 | 2.74286 | 38 ft | 11 kts | 244° |
| 2026-05-04 13:54 | 39.56106 | 2.74009 | 37 ft | 71 kts | 237° |
| 2026-05-04 13:54 | 39.55194 | 2.72090 | 278 ft | 152 kts | 236° |
| 2026-05-04 13:55 | 39.54627 | 2.70934 | 980 ft | 154 kts | 237° |
| 2026-05-04 13:55 | 39.53507 | 2.68493 | 2331 ft | 163 kts | 239° |
| 2026-05-04 13:55 | 39.52893 | 2.67147 | 2722 ft | 183 kts | 238° |
| 2026-05-04 13:56 | 39.52195 | 2.65666 | 3085 ft | 200 kts | 237° |
| 2026-05-04 13:56 | 39.51451 | 2.64117 | 3647 ft | 207 kts | 237° |
| 2026-05-04 13:56 | 39.49842 | 2.60987 | 5117 ft | 215 kts | 223° |
| 2026-05-04 13:57 | 39.48547 | 2.59957 | 5792 ft | 222 kts | 207° |
| 2026-05-04 13:57 | 39.47157 | 2.59064 | 6624 ft | 224 kts | 208° |
| 2026-05-04 13:58 | 39.42893 | 2.56666 | 8938 ft | 237 kts | 187° |
| 2026-05-04 13:58 | 39.39577 | 2.58481 | 9829 ft | 286 kts | 146° |
| 2026-05-04 13:58 | 39.38020 | 2.60234 | 10339 ft | 303 kts | 141° |
| 2026-05-04 13:59 | 39.36441 | 2.62184 | 10576 ft | 327 kts | 140° |
| 2026-05-04 13:59 | 39.34778 | 2.64328 | 10960 ft | 343 kts | 139° |
| 2026-05-04 13:59 | 39.31359 | 2.68773 | 12318 ft | 353 kts | 139° |
| 2026-05-04 14:00 | 39.29604 | 2.71006 | 13019 ft | 358 kts | 140° |
| 2026-05-04 14:00 | 39.26919 | 2.76485 | 14264 ft | 382 kts | 102° |
| 2026-05-04 14:00 | 39.26739 | 2.79931 | 14832 ft | 389 kts | 93° |
| 2026-05-04 14:01 | 39.26705 | 2.83434 | 15411 ft | 394 kts | 92° |
| 2026-05-04 14:01 | 39.26855 | 2.86993 | 15959 ft | 401 kts | 82° |
| 2026-05-04 14:01 | 39.28684 | 2.93878 | 17067 ft | 412 kts | 60° |
| 2026-05-04 14:02 | 39.30114 | 2.97103 | 17617 ft | 417 kts | 59° |
| 2026-05-04 14:02 | 39.31561 | 3.00373 | 18180 ft | 422 kts | 59° |
| 2026-05-04 14:02 | 39.33016 | 3.03677 | 18660 ft | 426 kts | 59° |
| 2026-05-04 14:02 | 39.34490 | 3.07016 | 19160 ft | 431 kts | 59° |
| 2026-05-04 14:03 | 39.35986 | 3.10398 | 19639 ft | 435 kts | 59° |
| 2026-05-04 14:03 | 39.37497 | 3.13811 | 20124 ft | 440 kts | 59° |
| 2026-05-04 14:03 | 39.38999 | 3.17204 | 20603 ft | 444 kts | 59° |
| 2026-05-04 14:03 | 39.40564 | 3.20742 | 21093 ft | 448 kts | 60° |
| 2026-05-04 14:04 | 39.43714 | 3.27862 | 22049 ft | 457 kts | 59° |
| 2026-05-04 14:04 | 39.45331 | 3.31427 | 22538 ft | 461 kts | 59° |
| 2026-05-04 14:04 | 39.46985 | 3.35006 | 22995 ft | 465 kts | 59° |
| 2026-05-04 14:05 | 39.50354 | 3.42237 | 23826 ft | 473 kts | 59° |
| 2026-05-04 14:05 | 39.52051 | 3.45912 | 24212 ft | 476 kts | 59° |
| 2026-05-04 14:05 | 39.53745 | 3.49601 | 24593 ft | 479 kts | 59° |
| 2026-05-04 14:06 | 39.55448 | 3.53318 | 24962 ft | 481 kts | 59° |
| 2026-05-04 14:06 | 39.57158 | 3.57056 | 25323 ft | 484 kts | 59° |
| 2026-05-04 14:06 | 39.58879 | 3.60828 | 25670 ft | 487 kts | 60° |
| 2026-05-04 14:06 | 39.60605 | 3.64621 | 26017 ft | 489 kts | 60° |
| 2026-05-04 14:07 | 39.62333 | 3.68422 | 26353 ft | 492 kts | 60° |
| 2026-05-04 14:07 | 39.64079 | 3.72254 | 26684 ft | 495 kts | 60° |
| 2026-05-04 14:07 | 39.65834 | 3.76110 | 27022 ft | 497 kts | 60° |
| 2026-05-04 14:07 | 39.67598 | 3.79985 | 27334 ft | 500 kts | 60° |
| 2026-05-04 14:08 | 39.69373 | 3.83890 | 27651 ft | 503 kts | 60° |
| 2026-05-04 14:08 | 39.71152 | 3.87813 | 27960 ft | 505 kts | 60° |
| 2026-05-04 14:08 | 39.72936 | 3.91756 | 28282 ft | 508 kts | 60° |
| 2026-05-04 14:08 | 39.74730 | 3.95730 | 28592 ft | 510 kts | 60° |
| 2026-05-04 14:09 | 39.78326 | 4.03708 | 29185 ft | 515 kts | 60° |
| 2026-05-04 14:09 | 39.80139 | 4.07737 | 29464 ft | 517 kts | 60° |
| 2026-05-04 14:10 | 39.84353 | 4.15331 | 29981 ft | 520 kts | 44° |
| 2026-05-04 14:10 | 39.87061 | 4.18438 | 30209 ft | 519 kts | 33° |
| 2026-05-04 14:10 | 39.90097 | 4.20965 | 30424 ft | 516 kts | 24° |
| 2026-05-04 14:10 | 39.93364 | 4.22852 | 30627 ft | 512 kts | 14° |
| 2026-05-04 14:11 | 39.96827 | 4.24077 | 30826 ft | 506 kts | 4° |
| 2026-05-04 14:11 | 40.03709 | 4.25677 | 31383 ft | 505 kts | 4° |
| 2026-05-04 14:11 | 40.07206 | 4.26501 | 31661 ft | 505 kts | 4° |
| 2026-05-04 14:12 | 40.10670 | 4.27323 | 31939 ft | 505 kts | 4° |
| 2026-05-04 14:12 | 40.14125 | 4.28145 | 32230 ft | 504 kts | 4° |
| 2026-05-04 14:12 | 40.21012 | 4.29780 | 32822 ft | 503 kts | 4° |
| 2026-05-04 14:13 | 40.24437 | 4.30585 | 33130 ft | 502 kts | 4° |
| 2026-05-04 14:13 | 40.27891 | 4.31397 | 33433 ft | 501 kts | 4° |
| 2026-05-04 14:13 | 40.31316 | 4.32206 | 33742 ft | 500 kts | 4° |
| 2026-05-04 14:13 | 40.34729 | 4.33018 | 34032 ft | 499 kts | 4° |
| 2026-05-04 14:14 | 40.38141 | 4.33833 | 34297 ft | 498 kts | 4° |
| 2026-05-04 14:14 | 40.44950 | 4.35464 | 34821 ft | 496 kts | 4° |
| 2026-05-04 14:14 | 40.48339 | 4.36270 | 35085 ft | 495 kts | 4° |
| 2026-05-04 14:15 | 40.55112 | 4.37879 | 35580 ft | 494 kts | 4° |
| 2026-05-04 14:15 | 40.61872 | 4.39487 | 35943 ft | 493 kts | 4° |
| 2026-05-04 14:16 | 40.71964 | 4.41912 | 35954 ft | 491 kts | 4° |
| 2026-05-04 14:17 | 40.80975 | 4.44074 | 35957 ft | 492 kts | 4° |
| 2026-05-04 14:18 | 40.91073 | 4.46498 | 35957 ft | 492 kts | 4° |
| 2026-05-04 14:19 | 41.04559 | 4.49775 | 35971 ft | 493 kts | 4° |
| 2026-05-04 14:19 | 41.11310 | 4.51424 | 35968 ft | 494 kts | 4° |
| 2026-05-04 14:20 | 41.18077 | 4.53071 | 35971 ft | 494 kts | 4° |
| 2026-05-04 14:20 | 41.24830 | 4.54721 | 35960 ft | 494 kts | 4° |
| 2026-05-04 14:21 | 41.34954 | 4.57200 | 35975 ft | 494 kts | 4° |
| 2026-05-04 14:21 | 41.41727 | 4.58863 | 35962 ft | 494 kts | 4° |
| 2026-05-04 14:22 | 41.48524 | 4.60534 | 35966 ft | 494 kts | 4° |
| 2026-05-04 14:22 | 41.55288 | 4.62199 | 35966 ft | 494 kts | 4° |
| 2026-05-04 14:23 | 41.65412 | 4.64691 | 35964 ft | 493 kts | 4° |
| 2026-05-04 14:24 | 41.72118 | 4.66631 | 35968 ft | 499 kts | 13° |
| 2026-05-04 14:24 | 41.78411 | 4.70742 | 35973 ft | 507 kts | 27° |
| 2026-05-04 14:25 | 41.84453 | 4.75609 | 35964 ft | 506 kts | 27° |
| 2026-05-04 14:25 | 41.93522 | 4.82881 | 35964 ft | 506 kts | 27° |
| 2026-05-04 14:26 | 41.99543 | 4.87753 | 35973 ft | 506 kts | 27° |
| 2026-05-04 14:26 | 42.05580 | 4.92644 | 35977 ft | 506 kts | 27° |
| 2026-05-04 14:27 | 42.11607 | 4.97535 | 35979 ft | 506 kts | 27° |
| 2026-05-04 14:27 | 42.17633 | 5.02434 | 35981 ft | 506 kts | 27° |
| 2026-05-04 14:28 | 42.23662 | 5.07348 | 35994 ft | 506 kts | 27° |
| 2026-05-04 14:28 | 42.29659 | 5.12255 | 35988 ft | 505 kts | 27° |
| 2026-05-04 14:29 | 42.41681 | 5.22114 | 35990 ft | 505 kts | 27° |
| 2026-05-04 14:30 | 42.47728 | 5.27082 | 35994 ft | 505 kts | 27° |
| 2026-05-04 14:31 | 42.56707 | 5.34476 | 36001 ft | 505 kts | 27° |
| 2026-05-04 14:32 | 42.68733 | 5.44455 | 36005 ft | 504 kts | 27° |
| 2026-05-04 14:32 | 42.74716 | 5.49424 | 36010 ft | 504 kts | 27° |
| 2026-05-04 14:33 | 42.80704 | 5.54409 | 36012 ft | 504 kts | 27° |
| 2026-05-04 14:33 | 42.86679 | 5.59403 | 36022 ft | 504 kts | 27° |
| 2026-05-04 14:34 | 42.92657 | 5.64407 | 36028 ft | 504 kts | 27° |
| 2026-05-04 14:34 | 42.98620 | 5.69406 | 36027 ft | 503 kts | 27° |
| 2026-05-04 14:35 | 43.04586 | 5.74418 | 36042 ft | 503 kts | 27° |
| 2026-05-04 14:35 | 43.10547 | 5.79429 | 36041 ft | 503 kts | 27° |
| 2026-05-04 14:36 | 43.16496 | 5.84453 | 36035 ft | 503 kts | 27° |
| 2026-05-04 14:36 | 43.22483 | 5.89535 | 36040 ft | 502 kts | 27° |
| 2026-05-04 14:37 | 43.28419 | 5.94579 | 36044 ft | 502 kts | 27° |
| 2026-05-04 14:37 | 43.34332 | 5.99606 | 36044 ft | 501 kts | 27° |
| 2026-05-04 14:38 | 43.40625 | 6.03444 | 36053 ft | 488 kts | 9° |
| 2026-05-04 14:38 | 43.47219 | 6.04817 | 36054 ft | 476 kts | 357° |
| 2026-05-04 14:39 | 43.53824 | 6.05475 | 36050 ft | 476 kts | 357° |
| 2026-05-04 14:39 | 43.60425 | 6.06142 | 36052 ft | 476 kts | 357° |
| 2026-05-04 14:40 | 43.70334 | 6.07152 | 36049 ft | 476 kts | 357° |
| 2026-05-04 14:40 | 43.76935 | 6.08374 | 36051 ft | 485 kts | 10° |
| 2026-05-04 14:41 | 43.83235 | 6.11968 | 36053 ft | 493 kts | 22° |
| 2026-05-04 14:42 | 43.95540 | 6.20377 | 36061 ft | 493 kts | 22° |
| 2026-05-04 14:42 | 44.01684 | 6.24590 | 36068 ft | 492 kts | 22° |
| 2026-05-04 14:43 | 44.07818 | 6.28794 | 36066 ft | 492 kts | 22° |
| 2026-05-04 14:43 | 44.13961 | 6.33003 | 36064 ft | 492 kts | 22° |
| 2026-05-04 14:44 | 44.20127 | 6.37247 | 36074 ft | 491 kts | 22° |
| 2026-05-04 14:44 | 44.26257 | 6.41491 | 36080 ft | 491 kts | 22° |
| 2026-05-04 14:45 | 44.32382 | 6.45745 | 36095 ft | 491 kts | 22° |
| 2026-05-04 14:45 | 44.38490 | 6.49992 | 36097 ft | 490 kts | 22° |
| 2026-05-04 14:46 | 44.44599 | 6.54236 | 36110 ft | 490 kts | 22° |
| 2026-05-04 14:46 | 44.50694 | 6.58482 | 36116 ft | 490 kts | 22° |
| 2026-05-04 14:47 | 44.56827 | 6.62762 | 36124 ft | 489 kts | 22° |
| 2026-05-04 14:47 | 44.62907 | 6.67021 | 36130 ft | 488 kts | 22° |
| 2026-05-04 14:48 | 44.67946 | 6.70558 | 36135 ft | 487 kts | 22° |
| 2026-05-04 14:48 | 44.74983 | 6.75501 | 36140 ft | 485 kts | 21° |
| 2026-05-04 14:49 | 44.80262 | 6.78030 | 36151 ft | 475 kts | 6° |
| 2026-05-04 14:49 | 44.86757 | 6.78608 | 36149 ft | 462 kts | 351° |
| 2026-05-04 14:50 | 44.93172 | 6.78169 | 36147 ft | 462 kts | 352° |
| 2026-05-04 14:50 | 44.99597 | 6.77757 | 36150 ft | 463 kts | 352° |
| 2026-05-04 14:51 | 45.06024 | 6.77329 | 36150 ft | 462 kts | 352° |
| 2026-05-04 14:51 | 45.12487 | 6.76896 | 36149 ft | 463 kts | 352° |
| 2026-05-04 14:52 | 45.18920 | 6.76472 | 36141 ft | 462 kts | 352° |
| 2026-05-04 14:52 | 45.25293 | 6.76052 | 36133 ft | 462 kts | 352° |
| 2026-05-04 14:53 | 45.31760 | 6.75618 | 36128 ft | 462 kts | 352° |
| 2026-05-04 14:53 | 45.38181 | 6.75185 | 36116 ft | 462 kts | 352° |
| 2026-05-04 14:54 | 45.44619 | 6.74753 | 36109 ft | 462 kts | 352° |
| 2026-05-04 14:54 | 45.51036 | 6.74322 | 36108 ft | 462 kts | 352° |
| 2026-05-04 14:55 | 45.57447 | 6.73876 | 36099 ft | 462 kts | 352° |
| 2026-05-04 14:55 | 45.63887 | 6.73435 | 36101 ft | 463 kts | 352° |
| 2026-05-04 14:56 | 45.70314 | 6.73002 | 36076 ft | 463 kts | 352° |
| 2026-05-04 14:56 | 45.76747 | 6.72568 | 36075 ft | 463 kts | 352° |
| 2026-05-04 14:57 | 45.83191 | 6.72124 | 36067 ft | 463 kts | 352° |
| 2026-05-04 14:57 | 45.89645 | 6.71678 | 36065 ft | 464 kts | 353° |
| 2026-05-04 14:58 | 45.96099 | 6.71243 | 36059 ft | 464 kts | 353° |
| 2026-05-04 14:58 | 46.02604 | 6.70807 | 36056 ft | 465 kts | 353° |
| 2026-05-04 14:59 | 46.09065 | 6.70366 | 36054 ft | 466 kts | 353° |
| 2026-05-04 14:59 | 46.15364 | 6.68814 | 36055 ft | 456 kts | 336° |
| 2026-05-04 15:00 | 46.18372 | 6.67345 | 36049 ft | 455 kts | 336° |
| 2026-05-04 15:00 | 46.24375 | 6.64423 | 36040 ft | 456 kts | 336° |
| 2026-05-04 15:01 | 46.33415 | 6.60021 | 36045 ft | 457 kts | 336° |
| 2026-05-04 15:01 | 46.39454 | 6.57066 | 36044 ft | 458 kts | 336° |
| 2026-05-04 15:02 | 46.45477 | 6.54118 | 36045 ft | 458 kts | 336° |
| 2026-05-04 15:02 | 46.51524 | 6.51144 | 36046 ft | 459 kts | 336° |
| 2026-05-04 15:03 | 46.57572 | 6.48169 | 36040 ft | 459 kts | 336° |
| 2026-05-04 15:03 | 46.63689 | 6.45157 | 36030 ft | 460 kts | 336° |
| 2026-05-04 15:04 | 46.69746 | 6.42169 | 36027 ft | 460 kts | 336° |
| 2026-05-04 15:04 | 46.75806 | 6.39167 | 36028 ft | 461 kts | 336° |
| 2026-05-04 15:05 | 46.81884 | 6.36154 | 36022 ft | 462 kts | 336° |
| 2026-05-04 15:05 | 46.87962 | 6.33123 | 36014 ft | 462 kts | 336° |
| 2026-05-04 15:06 | 46.94076 | 6.30062 | 36013 ft | 462 kts | 336° |
| 2026-05-04 15:07 | 47.03213 | 6.25496 | 36005 ft | 463 kts | 336° |
| 2026-05-04 15:07 | 47.09135 | 6.21927 | 36007 ft | 459 kts | 329° |
| 2026-05-04 15:08 | 47.14865 | 6.17769 | 36007 ft | 459 kts | 329° |
| 2026-05-04 15:08 | 47.20599 | 6.13629 | 36009 ft | 460 kts | 329° |
| 2026-05-04 15:09 | 47.26336 | 6.09484 | 36009 ft | 460 kts | 329° |
| 2026-05-04 15:09 | 47.32186 | 6.05408 | 35996 ft | 464 kts | 335° |
| 2026-05-04 15:10 | 47.38533 | 6.03427 | 35999 ft | 473 kts | 354° |
| 2026-05-04 15:10 | 47.41815 | 6.03431 | 36008 ft | 475 kts | 358° |
| 2026-05-04 15:11 | 47.51762 | 6.03662 | 36010 ft | 476 kts | 358° |
| 2026-05-04 15:11 | 47.58379 | 6.03789 | 36015 ft | 477 kts | 358° |
| 2026-05-04 15:12 | 47.65038 | 6.03934 | 36017 ft | 477 kts | 358° |
| 2026-05-04 15:12 | 47.71653 | 6.04083 | 36019 ft | 477 kts | 358° |
| 2026-05-04 15:13 | 47.78360 | 6.04248 | 36025 ft | 477 kts | 358° |
| 2026-05-04 15:13 | 47.84943 | 6.04451 | 36021 ft | 478 kts | 359° |
| 2026-05-04 15:14 | 47.91590 | 6.04681 | 36019 ft | 478 kts | 359° |
| 2026-05-04 15:14 | 47.98284 | 6.04895 | 36027 ft | 478 kts | 359° |
| 2026-05-04 15:15 | 48.04918 | 6.05095 | 36013 ft | 477 kts | 359° |
| 2026-05-04 15:15 | 48.11555 | 6.05309 | 36011 ft | 477 kts | 359° |
| 2026-05-04 15:16 | 48.21537 | 6.05622 | 36003 ft | 478 kts | 359° |
| 2026-05-04 15:17 | 48.31499 | 6.05932 | 36007 ft | 477 kts | 359° |
| 2026-05-04 15:17 | 48.41447 | 6.06350 | 36017 ft | 477 kts | 359° |
| 2026-05-04 15:18 | 48.48087 | 6.06687 | 36008 ft | 477 kts | 360° |
| 2026-05-04 15:19 | 48.58045 | 6.07166 | 36006 ft | 477 kts | 359° |
| 2026-05-04 15:19 | 48.66920 | 6.07561 | 36008 ft | 477 kts | 359° |
| 2026-05-04 15:20 | 48.74640 | 6.07909 | 36009 ft | 477 kts | 359° |
| 2026-05-04 15:20 | 48.80197 | 6.08166 | 36014 ft | 477 kts | 359° |
| 2026-05-04 15:21 | 48.86836 | 6.08491 | 36012 ft | 477 kts | 360° |
| 2026-05-04 15:22 | 48.96780 | 6.08951 | 36005 ft | 476 kts | 359° |
| 2026-05-04 15:22 | 49.06720 | 6.09409 | 35999 ft | 476 kts | 359° |
| 2026-05-04 15:23 | 49.13340 | 6.09722 | 35999 ft | 476 kts | 359° |
| 2026-05-04 15:23 | 49.19967 | 6.10043 | 35997 ft | 476 kts | 360° |
| 2026-05-04 15:24 | 49.33222 | 6.10725 | 35963 ft | 477 kts | 360° |
| 2026-05-04 15:25 | 49.36543 | 6.10901 | 35702 ft | 477 kts | 360° |
| 2026-05-04 15:25 | 49.39864 | 6.11078 | 35452 ft | 477 kts | 360° |
| 2026-05-04 15:25 | 49.43191 | 6.11256 | 35206 ft | 478 kts | 360° |
| 2026-05-04 15:26 | 49.49855 | 6.11611 | 34718 ft | 479 kts | 359° |
| 2026-05-04 15:26 | 49.53180 | 6.11757 | 34479 ft | 480 kts | 359° |
| 2026-05-04 15:26 | 49.59869 | 6.11997 | 33999 ft | 481 kts | 359° |
| 2026-05-04 15:27 | 49.63212 | 6.12112 | 33377 ft | 483 kts | 359° |
| 2026-05-04 15:27 | 49.69913 | 6.12355 | 32047 ft | 477 kts | 359° |
| 2026-05-04 15:28 | 49.76506 | 6.12604 | 30855 ft | 471 kts | 359° |
| 2026-05-04 15:28 | 49.79817 | 6.12732 | 30246 ft | 470 kts | 359° |
| 2026-05-04 15:28 | 49.86296 | 6.12985 | 29053 ft | 463 kts | 359° |
| 2026-05-04 15:29 | 49.89532 | 6.13075 | 28468 ft | 458 kts | 358° |
| 2026-05-04 15:30 | 50.02031 | 6.13070 | 26265 ft | 442 kts | 358° |
| 2026-05-04 15:30 | 50.11135 | 6.13108 | 24737 ft | 431 kts | 358° |
| 2026-05-04 15:31 | 50.17104 | 6.13155 | 23748 ft | 424 kts | 358° |
| 2026-05-04 15:31 | 50.20033 | 6.13173 | 23213 ft | 421 kts | 358° |
| 2026-05-04 15:32 | 50.28685 | 6.13760 | 21779 ft | 411 kts | 12° |
| 2026-05-04 15:32 | 50.33860 | 6.17248 | 20789 ft | 405 kts | 34° |
| 2026-05-04 15:33 | 50.38554 | 6.22114 | 19788 ft | 401 kts | 34° |
| 2026-05-04 15:34 | 50.45507 | 6.29256 | 18272 ft | 396 kts | 34° |
| 2026-05-04 15:34 | 50.47741 | 6.31851 | 17721 ft | 393 kts | 44° |
| 2026-05-04 15:34 | 50.50893 | 6.38615 | 16761 ft | 381 kts | 68° |
| 2026-05-04 15:35 | 50.52958 | 6.46212 | 15827 ft | 375 kts | 69° |
| 2026-05-04 15:35 | 50.53976 | 6.49949 | 15340 ft | 372 kts | 69° |
| 2026-05-04 15:35 | 50.55013 | 6.53744 | 14861 ft | 370 kts | 69° |
| 2026-05-04 15:36 | 50.57024 | 6.61139 | 13909 ft | 366 kts | 69° |
| 2026-05-04 15:36 | 50.58016 | 6.64801 | 13412 ft | 363 kts | 69° |
| 2026-05-04 15:36 | 50.59031 | 6.68420 | 12914 ft | 360 kts | 63° |
| 2026-05-04 15:37 | 50.60508 | 6.71587 | 12443 ft | 359 kts | 45° |
| 2026-05-04 15:37 | 50.62507 | 6.73920 | 11953 ft | 358 kts | 28° |
| 2026-05-04 15:37 | 50.64832 | 6.75222 | 11437 ft | 356 kts | 10° |
| 2026-05-04 15:37 | 50.67286 | 6.75512 | 10919 ft | 353 kts | 0° |
| 2026-05-04 15:38 | 50.69744 | 6.75601 | 10408 ft | 351 kts | 1° |
| 2026-05-04 15:38 | 50.72154 | 6.75692 | 10195 ft | 340 kts | 1° |
| 2026-05-04 15:38 | 50.74468 | 6.75780 | 10072 ft | 326 kts | 1° |
| 2026-05-04 15:38 | 50.76688 | 6.75863 | 9946 ft | 314 kts | 1° |
| 2026-05-04 15:39 | 50.78840 | 6.75944 | 9758 ft | 306 kts | 1° |
| 2026-05-04 15:39 | 50.80961 | 6.76024 | 9386 ft | 304 kts | 1° |
| 2026-05-04 15:39 | 50.85147 | 6.76182 | 8362 ft | 297 kts | 1° |
| 2026-05-04 15:40 | 50.87233 | 6.76261 | 7668 ft | 294 kts | 1° |
| 2026-05-04 15:40 | 50.88589 | 6.76315 | 7249 ft | 292 kts | 1° |
| 2026-05-04 15:40 | 50.90790 | 6.76404 | 6803 ft | 291 kts | 1° |
| 2026-05-04 15:40 | 50.92810 | 6.76615 | 6362 ft | 291 kts | 10° |
| 2026-05-04 15:41 | 50.94731 | 6.77563 | 6134 ft | 280 kts | 25° |
| 2026-05-04 15:41 | 50.96424 | 6.78842 | 5962 ft | 266 kts | 26° |
| 2026-05-04 15:41 | 50.98000 | 6.80267 | 5722 ft | 248 kts | 38° |
| 2026-05-04 15:41 | 50.99242 | 6.82118 | 5335 ft | 247 kts | 52° |
| 2026-05-04 15:42 | 51.00308 | 6.84246 | 4748 ft | 250 kts | 53° |
| 2026-05-04 15:42 | 51.01386 | 6.86418 | 4212 ft | 246 kts | 53° |
| 2026-05-04 15:42 | 51.02360 | 6.88625 | 3917 ft | 240 kts | 70° |
| 2026-05-04 15:42 | 51.02476 | 6.91141 | 3700 ft | 224 kts | 111° |
| 2026-05-04 15:43 | 51.01636 | 6.93096 | 3560 ft | 211 kts | 137° |
| 2026-05-04 15:43 | 51.00586 | 6.94658 | 3450 ft | 202 kts | 140° |
| 2026-05-04 15:43 | 50.99561 | 6.96141 | 3317 ft | 197 kts | 140° |
| 2026-05-04 15:43 | 50.98554 | 6.97605 | 3089 ft | 196 kts | 140° |
| 2026-05-04 15:44 | 50.97558 | 6.99059 | 2839 ft | 196 kts | 140° |
| 2026-05-04 15:44 | 50.96552 | 7.00525 | 2582 ft | 196 kts | 140° |
| 2026-05-04 15:44 | 50.95533 | 7.02009 | 2355 ft | 195 kts | 140° |
| 2026-05-04 15:44 | 50.94559 | 7.03431 | 2125 ft | 189 kts | 139° |
| 2026-05-04 15:45 | 50.93603 | 7.04827 | 1824 ft | 181 kts | 139° |
| 2026-05-04 15:45 | 50.92704 | 7.06139 | 1532 ft | 170 kts | 140° |
| 2026-05-04 15:45 | 50.91892 | 7.07322 | 1371 ft | 148 kts | 140° |
| 2026-05-04 15:45 | 50.91148 | 7.08398 | 1126 ft | 140 kts | 139° |
| 2026-05-04 15:46 | 50.90442 | 7.09426 | 930 ft | 136 kts | 140° |
| 2026-05-04 15:46 | 50.89748 | 7.10442 | 783 ft | 137 kts | 140° |
| 2026-05-04 15:46 | 50.89035 | 7.11480 | 598 ft | 141 kts | 139° |
| 2026-05-04 15:46 | 50.88312 | 7.12525 | 381 ft | 137 kts | 139° |
| 2026-05-04 15:47 | 50.87635 | 7.13509 | 244 ft | 126 kts | 140° |
| 2026-05-04 15:47 | 50.87092 | 7.14288 | 252 ft | 80 kts | 137° |
| 2026-05-04 15:47 | 50.86906 | 7.14533 | 260 ft | 11 kts | 180° |
| 2026-05-04 15:47 | 50.86872 | 7.14455 | 260 ft | 8 kts | 274° |
| 2026-05-04 15:48 | 50.86884 | 7.14364 | 259 ft | 9 kts | 282° |
| 2026-05-04 15:48 | 50.86897 | 7.14261 | 256 ft | 10 kts | 279° |
| 2026-05-04 15:48 | 50.86913 | 7.14079 | 255 ft | 9 kts | 278° |
| 2026-05-04 15:49 | 50.86924 | 7.13972 | 251 ft | 11 kts | 279° |
| 2026-05-04 15:49 | 50.86968 | 7.13860 | 246 ft | 14 kts | 316° |
| 2026-05-04 15:49 | 50.87041 | 7.13754 | 242 ft | 14 kts | 317° |
| 2026-05-04 15:49 | 50.87113 | 7.13649 | 239 ft | 14 kts | 317° |
| 2026-05-04 15:50 | 50.87186 | 7.13544 | 237 ft | 14 kts | 317° |
| 2026-05-04 15:50 | 50.87259 | 7.13438 | 234 ft | 14 kts | 317° |
| 2026-05-04 15:50 | 50.87332 | 7.13332 | 232 ft | 14 kts | 318° |
| 2026-05-04 15:50 | 50.87398 | 7.13238 | 232 ft | 12 kts | 318° |
| 2026-05-04 15:51 | 50.87456 | 7.13154 | 232 ft | 10 kts | 317° |
| 2026-05-04 15:51 | 50.87507 | 7.13080 | 232 ft | 11 kts | 317° |
| 2026-05-04 15:51 | 50.87585 | 7.12966 | 232 ft | 18 kts | 317° |
| 2026-05-04 15:51 | 50.87683 | 7.12824 | 232 ft | 19 kts | 317° |
| 2026-05-04 15:52 | 50.87764 | 7.12696 | 232 ft | 12 kts | 298° |
| 2026-05-04 15:52 | 50.87759 | 7.12584 | 233 ft | 9 kts | 251° |
| 2026-05-04 15:52 | 50.87751 | 7.12493 | 232 ft | 8 kts | 286° |
| 2026-05-04 15:52 | 50.87765 | 7.12423 | 234 ft | 6 kts | 289° |
| 2026-05-04 15:53 | 50.87769 | 7.12400 | 232 ft | 0 kts | 288° |